Time;durP1;ratioP1;P1;durP2;ratioP2;P2;SDS_P1;SDS_P2;PMS_P1;PMS_P2;Temp;Humidity;BMP_temperature;BMP_pressure;BME280_temperature;BME280_humidity;BME280_pressure;Samples;Min_cycle;Max_cycle;Signal;HPM_P1;HPM_P2
2023/05/17 00:01:50;;;;;;;2.75;1.15;;;6.50;99.90;;;;;;5077984;28;20103;-59
2023/05/17 00:04:15;;;;;;;2.55;1.10;;;6.50;99.90;;;;;;5075168;28;20500;-60
2023/05/17 00:06:42;;;;;;;3.35;1.58;;;6.40;99.90;;;;;;5077261;28;20035;-59
2023/05/17 00:09:08;;;;;;;9.07;1.55;;;6.40;99.90;;;;;;5079139;28;20035;-60
2023/05/17 00:11:33;;;;;;;4.32;1.40;;;6.40;99.90;;;;;;5076646;28;20095;-58
2023/05/17 00:13:59;;;;;;;4.43;1.10;;;6.40;99.90;;;;;;5077793;28;20036;-58
2023/05/17 00:16:25;;;;;;;10.38;1.70;;;6.30;99.90;;;;;;5074625;28;20028;-59
2023/05/17 00:18:50;;;;;;;2.35;1.20;;;6.30;99.90;;;;;;5077952;28;20024;-59
2023/05/17 00:21:16;;;;;;;9.85;1.83;;;6.30;99.90;;;;;;5076612;28;20077;-57
2023/05/17 00:23:41;;;;;;;5.53;1.33;;;6.20;99.90;;;;;;5073021;28;20028;-59
2023/05/17 00:26:07;;;;;;;5.93;1.60;;;6.20;99.90;;;;;;5076255;28;20028;-59
2023/05/17 00:28:33;;;;;;;3.80;1.45;;;6.10;99.90;;;;;;5076993;28;20028;-58
2023/05/17 00:30:58;;;;;;;4.03;1.23;;;6.10;99.90;;;;;;5078203;28;20408;-58
2023/05/17 00:33:24;;;;;;;4.50;1.90;;;6.10;99.90;;;;;;5078164;28;20032;-58
2023/05/17 00:35:50;;;;;;;2.47;1.25;;;6.10;99.90;;;;;;5077965;28;20031;-58
2023/05/17 00:38:15;;;;;;;4.10;1.35;;;6.00;99.90;;;;;;5074719;28;20020;-59
2023/05/17 00:40:41;;;;;;;4.32;1.70;;;6.00;99.90;;;;;;5062806;28;20126;-58
2023/05/17 00:43:06;;;;;;;3.40;1.27;;;6.00;99.90;;;;;;5074331;28;20023;-58
2023/05/17 00:45:32;;;;;;;2.53;1.33;;;6.00;99.90;;;;;;5077775;28;20069;-59
2023/05/17 00:47:57;;;;;;;2.85;1.02;;;6.00;99.90;;;;;;5073685;28;20024;-59
2023/05/17 00:50:23;;;;;;;5.05;1.25;;;6.00;99.90;;;;;;5075602;28;20043;-59
2023/05/17 00:52:49;;;;;;;2.35;1.13;;;5.90;99.90;;;;;;5075377;28;20044;-58
2023/05/17 00:55:15;;;;;;;3.55;0.93;;;5.90;99.90;;;;;;5076601;28;20033;-58
2023/05/17 00:57:40;;;;;;;6.53;1.60;;;5.90;99.90;;;;;;5077779;28;20022;-59
2023/05/17 01:00:07;;;;;;;7.47;1.33;;;5.90;99.90;;;;;;5077848;28;20147;-58
2023/05/17 01:02:33;;;;;;;3.13;1.30;;;5.90;99.90;;;;;;5074989;28;20446;-59
2023/05/17 01:04:59;;;;;;;5.57;1.20;;;5.90;99.90;;;;;;5077379;28;20212;-58
2023/05/17 01:07:25;;;;;;;1.95;1.10;;;5.90;99.90;;;;;;5077701;28;20103;-58
2023/05/17 01:09:51;;;;;;;2.13;1.20;;;5.80;99.90;;;;;;5077147;28;20162;-59
2023/05/17 01:12:37;;;;;;;2.08;1.10;;;5.80;99.90;;;;;;5077923;28;20016;-60
2023/05/17 01:15:23;;;;;;;3.45;1.10;;;5.80;99.90;;;;;;5076256;28;20115;-58
2023/05/17 01:18:10;;;;;;;3.15;1.02;;;5.80;99.90;;;;;;5055649;28;20492;-58
2023/05/17 01:20:44;;;;;;;2.90;1.42;;;5.80;99.90;;;;;;5076027;28;20547;-59
2023/05/17 01:23:10;;;;;;;6.30;1.77;;;5.80;99.90;;;;;;5078449;28;20087;-58
2023/05/17 01:25:38;;;;;;;3.58;1.20;;;5.70;99.90;;;;;;5074257;28;20028;-58
2023/05/17 01:28:06;;;;;;;2.80;1.40;;;5.70;99.90;;;;;;5072235;28;20035;-59
2023/05/17 01:30:33;;;;;;;2.90;1.00;;;5.70;99.90;;;;;;5077571;28;20579;-60
2023/05/17 01:33:01;;;;;;;5.10;1.38;;;5.70;99.90;;;;;;5075313;28;20040;-58
2023/05/17 01:35:27;;;;;;;9.15;1.10;;;5.60;99.90;;;;;;5080209;28;20203;-59
2023/05/17 01:37:53;;;;;;;4.30;1.10;;;5.60;99.90;;;;;;5075973;28;20555;-59
2023/05/17 01:40:19;;;;;;;9.35;1.30;;;5.60;99.90;;;;;;5078838;28;20039;-59
2023/05/17 01:42:59;;;;;;;4.93;1.70;;;5.50;99.90;;;;;;5075869;28;20025;-58
2023/05/17 01:45:37;;;;;;;2.75;1.15;;;5.50;99.90;;;;;;5073651;28;20032;-60
2023/05/17 01:48:22;;;;;;;4.28;1.60;;;5.40;99.90;;;;;;5077811;28;20024;-58
2023/05/17 01:50:51;;;;;;;2.97;1.40;;;5.40;99.90;;;;;;5075962;28;20067;-58
2023/05/17 01:53:28;;;;;;;2.70;1.50;;;5.30;99.90;;;;;;5073968;28;20055;-58
2023/05/17 01:56:00;;;;;;;5.43;1.40;;;5.20;99.90;;;;;;5076899;28;20504;-59
2023/05/17 01:58:28;;;;;;;3.58;1.65;;;5.20;99.90;;;;;;5075770;28;20036;-59
2023/05/17 02:00:57;;;;;;;3.63;1.25;;;5.20;99.90;;;;;;5071817;28;20025;-59
2023/05/17 02:03:23;;;;;;;1.80;1.40;;;5.10;99.90;;;;;;5075757;28;20028;-59
2023/05/17 02:05:49;;;;;;;3.97;1.42;;;5.10;99.90;;;;;;5077879;28;20028;-59
2023/05/17 02:08:15;;;;;;;2.55;1.20;;;5.10;99.90;;;;;;5076220;28;20620;-59
2023/05/17 02:10:40;;;;;;;9.10;1.55;;;5.00;99.90;;;;;;5060898;28;20039;-58
2023/05/17 02:13:06;;;;;;;1.58;1.25;;;5.00;99.90;;;;;;5079238;28;20082;-59
2023/05/17 02:15:32;;;;;;;2.55;1.30;;;5.00;99.90;;;;;;5079309;28;20370;-59
2023/05/17 02:17:57;;;;;;;3.42;1.27;;;4.90;99.90;;;;;;5078546;28;20033;-58
2023/05/17 02:20:23;;;;;;;2.33;1.30;;;4.90;99.90;;;;;;5080338;28;20044;-59
2023/05/17 02:22:49;;;;;;;5.25;1.90;;;4.80;99.90;;;;;;5079207;28;20112;-59
2023/05/17 02:25:15;;;;;;;2.60;1.42;;;4.80;99.90;;;;;;5081484;28;20021;-59
2023/05/17 02:27:40;;;;;;;3.45;1.38;;;4.70;99.90;;;;;;5081247;28;20408;-58
2023/05/17 02:30:07;;;;;;;3.25;1.65;;;4.70;99.90;;;;;;5078819;28;20129;-59
2023/05/17 02:32:32;;;;;;;2.78;1.50;;;4.60;99.90;;;;;;5081244;28;20024;-58
2023/05/17 02:34:58;;;;;;;4.53;1.13;;;4.60;99.90;;;;;;5079455;28;20746;-59
2023/05/17 02:37:24;;;;;;;3.53;1.50;;;4.50;99.90;;;;;;5079166;28;20036;-59
2023/05/17 02:39:50;;;;;;;4.47;1.27;;;4.50;99.90;;;;;;5079979;28;20573;-59
2023/05/17 02:42:16;;;;;;;2.75;1.30;;;4.50;99.90;;;;;;5080124;28;20036;-59
2023/05/17 02:44:41;;;;;;;4.78;2.28;;;4.50;99.90;;;;;;5076431;28;20028;-59
2023/05/17 02:47:07;;;;;;;4.07;1.65;;;4.50;99.90;;;;;;5075713;28;20047;-59
2023/05/17 02:49:32;;;;;;;4.00;1.95;;;4.50;99.90;;;;;;5074436;28;20392;-58
2023/05/17 02:51:59;;;;;;;3.90;1.70;;;4.40;99.90;;;;;;5075629;28;20082;-59
2023/05/17 02:54:25;;;;;;;5.90;1.73;;;4.40;99.90;;;;;;5078936;28;20020;-58
2023/05/17 02:56:51;;;;;;;4.68;2.10;;;4.40;99.90;;;;;;5080012;28;20550;-58
2023/05/17 02:59:16;;;;;;;6.50;1.50;;;4.40;99.90;;;;;;5082108;28;20438;-59
2023/05/17 03:01:42;;;;;;;3.42;1.65;;;4.40;99.90;;;;;;5077850;28;20036;-59
2023/05/17 03:04:08;;;;;;;2.42;1.50;;;4.40;99.90;;;;;;5078766;28;20044;-59
2023/05/17 03:06:33;;;;;;;4.75;2.00;;;4.40;99.90;;;;;;5076097;28;20101;-59
2023/05/17 03:08:59;;;;;;;6.65;2.05;;;4.40;99.90;;;;;;5077506;28;20074;-57
2023/05/17 03:11:25;;;;;;;5.15;2.00;;;4.40;99.90;;;;;;5075425;28;20450;-58
2023/05/17 03:13:51;;;;;;;3.08;1.95;;;4.40;99.90;;;;;;5077567;28;20040;-60
2023/05/17 03:16:17;;;;;;;2.58;1.52;;;4.40;99.90;;;;;;5079341;28;20895;-58
2023/05/17 03:18:43;;;;;;;6.38;2.03;;;4.40;99.90;;;;;;5076127;28;20082;-58
2023/05/17 03:21:09;;;;;;;2.28;1.45;;;4.30;99.90;;;;;;5077397;28;20032;-58
2023/05/17 03:23:34;;;;;;;3.53;1.75;;;4.30;99.90;;;;;;5078091;28;20036;-58
2023/05/17 03:26:00;;;;;;;4.32;1.60;;;4.30;99.90;;;;;;5078642;28;20553;-58
2023/05/17 03:28:26;;;;;;;2.50;1.38;;;4.30;99.90;;;;;;5081993;28;20032;-58
2023/05/17 03:30:51;;;;;;;2.10;1.27;;;4.20;99.90;;;;;;5075039;28;20036;-58
2023/05/17 03:33:18;;;;;;;5.05;1.50;;;4.20;99.90;;;;;;5077277;28;20044;-58
2023/05/17 03:35:45;;;;;;;2.58;1.27;;;4.10;99.90;;;;;;5079658;28;20071;-59
2023/05/17 03:38:11;;;;;;;5.60;1.45;;;4.10;99.90;;;;;;5075832;28;20032;-57
2023/05/17 03:40:37;;;;;;;4.00;2.03;;;4.10;99.90;;;;;;5077765;28;20338;-59
2023/05/17 03:43:02;;;;;;;5.57;1.73;;;4.10;99.90;;;;;;5077154;28;20016;-58
2023/05/17 03:45:28;;;;;;;6.07;1.67;;;4.10;99.90;;;;;;5076228;28;20179;-58
2023/05/17 03:47:53;;;;;;;1.90;1.50;;;4.10;99.90;;;;;;5078286;28;20050;-58
2023/05/17 03:50:19;;;;;;;2.40;1.70;;;4.10;99.90;;;;;;5078314;28;20427;-58
2023/05/17 03:52:45;;;;;;;3.30;1.80;;;4.10;99.90;;;;;;5079721;28;20059;-58
2023/05/17 03:55:10;;;;;;;2.25;1.67;;;4.10;99.90;;;;;;5080690;28;20020;-58
2023/05/17 03:57:36;;;;;;;3.28;1.83;;;4.10;99.90;;;;;;5076214;28;20132;-59
2023/05/17 04:00:05;;;;;;;2.45;1.80;;;4.10;99.90;;;;;;5077197;28;20027;-59
2023/05/17 04:02:31;;;;;;;6.45;2.15;;;4.10;99.90;;;;;;5077382;28;20063;-59
2023/05/17 04:04:57;;;;;;;3.83;2.10;;;4.10;99.90;;;;;;5074490;28;20048;-59
2023/05/17 04:07:22;;;;;;;2.05;1.65;;;4.20;99.90;;;;;;5061279;28;20032;-60
2023/05/17 04:09:48;;;;;;;3.80;2.03;;;4.20;99.90;;;;;;5075353;28;20024;-57
2023/05/17 04:12:13;;;;;;;6.55;2.05;;;4.30;99.90;;;;;;5078052;28;20040;-58
2023/05/17 04:14:40;;;;;;;3.75;2.45;;;4.40;99.90;;;;;;5075189;28;20031;-58
2023/05/17 04:17:06;;;;;;;2.92;2.05;;;4.40;99.90;;;;;;5077593;28;20024;-60
2023/05/17 04:19:32;;;;;;;3.40;2.35;;;4.50;99.90;;;;;;5078138;28;20024;-59
2023/05/17 04:21:58;;;;;;;2.55;2.03;;;4.50;99.90;;;;;;5074772;28;20122;-59
2023/05/17 04:24:23;;;;;;;3.40;1.75;;;4.50;99.90;;;;;;5074845;28;20062;-59
2023/05/17 04:26:49;;;;;;;4.60;2.10;;;4.60;99.90;;;;;;5078314;28;20438;-61
2023/05/17 04:29:15;;;;;;;5.05;2.00;;;4.60;99.90;;;;;;5075712;28;20020;-61
2023/05/17 04:31:41;;;;;;;4.78;1.80;;;4.70;99.90;;;;;;5074599;28;20036;-61
2023/05/17 04:34:07;;;;;;;4.72;1.98;;;4.80;99.90;;;;;;5077496;28;20527;-62
2023/05/17 04:36:32;;;;;;;6.47;2.40;;;4.90;99.90;;;;;;5076482;28;20066;-58
2023/05/17 04:38:58;;;;;;;3.90;2.20;;;5.00;99.90;;;;;;5076498;28;20032;-58
2023/05/17 04:41:24;;;;;;;4.38;1.80;;;5.10;99.90;;;;;;5077493;28;20036;-59
2023/05/17 04:43:49;;;;;;;4.10;1.77;;;5.20;99.90;;;;;;5074637;28;20028;-59
2023/05/17 04:46:15;;;;;;;5.22;2.00;;;5.30;99.90;;;;;;5076876;28;20551;-58
2023/05/17 04:48:41;;;;;;;6.35;2.67;;;5.40;99.90;;;;;;5075307;28;20051;-59
2023/05/17 04:51:06;;;;;;;7.03;3.03;;;5.50;99.90;;;;;;5076462;28;20037;-58
2023/05/17 04:53:32;;;;;;;6.10;1.73;;;5.60;99.90;;;;;;5077130;28;20020;-58
2023/05/17 04:55:58;;;;;;;2.90;1.58;;;5.70;99.90;;;;;;5076631;28;20032;-59
2023/05/17 04:58:24;;;;;;;3.67;1.70;;;5.70;99.90;;;;;;5073226;28;20418;-58
2023/05/17 05:00:51;;;;;;;2.53;1.70;;;5.90;99.90;;;;;;5078213;28;20047;-59
2023/05/17 05:03:17;;;;;;;6.15;1.88;;;5.90;99.90;;;;;;5076706;28;20028;-58
2023/05/17 05:05:42;;;;;;;2.70;2.05;;;6.00;99.90;;;;;;5078664;28;20495;-59
2023/05/17 05:08:08;;;;;;;2.70;1.60;;;6.10;99.90;;;;;;5076893;28;20081;-58
2023/05/17 05:10:34;;;;;;;3.85;1.70;;;6.20;99.90;;;;;;5073740;28;20032;-58
2023/05/17 05:13:00;;;;;;;3.28;1.67;;;6.40;99.90;;;;;;5079466;28;20515;-58
2023/05/17 05:15:25;;;;;;;12.80;2.15;;;6.50;99.90;;;;;;5078064;28;20595;-58
2023/05/17 05:17:51;;;;;;;4.72;2.00;;;6.60;99.90;;;;;;5078064;28;20028;-59
2023/05/17 05:20:17;;;;;;;10.60;2.53;;;6.70;99.90;;;;;;5075790;28;20520;-59
2023/05/17 05:22:43;;;;;;;7.50;3.20;;;6.80;99.90;;;;;;5077343;28;20384;-59
2023/05/17 05:25:08;;;;;;;11.48;3.65;;;7.00;99.90;;;;;;5075679;28;20020;-60
2023/05/17 05:27:34;;;;;;;4.85;3.20;;;7.30;99.90;;;;;;5077829;28;20119;-59
2023/05/17 05:30:00;;;;;;;7.05;2.70;;;7.50;99.90;;;;;;5077461;28;20032;-58
2023/05/17 05:32:26;;;;;;;10.60;3.13;;;7.60;99.90;;;;;;5077634;28;20472;-58
2023/05/17 05:34:52;;;;;;;6.45;3.05;;;7.80;99.90;;;;;;5077755;28;20047;-59
2023/05/17 05:37:18;;;;;;;10.05;3.00;;;8.00;99.90;;;;;;5078742;28;20035;-59
2023/05/17 05:39:44;;;;;;;5.85;2.67;;;8.20;99.90;;;;;;5077426;28;20039;-59
2023/05/17 05:42:10;;;;;;;13.55;3.55;;;8.30;99.90;;;;;;5075834;28;20040;-59
2023/05/17 05:44:36;;;;;;;4.75;2.65;;;8.40;99.90;;;;;;5080188;28;20074;-59
2023/05/17 05:47:02;;;;;;;5.20;2.83;;;8.50;99.90;;;;;;5077872;28;20063;-58
2023/05/17 05:49:27;;;;;;;7.05;3.55;;;8.50;99.90;;;;;;5080028;28;20028;-58
2023/05/17 05:51:53;;;;;;;5.35;2.85;;;8.50;99.90;;;;;;5078950;28;20032;-59
2023/05/17 05:54:18;;;;;;;6.20;2.95;;;8.50;99.90;;;;;;5082466;28;20032;-57
2023/05/17 05:56:44;;;;;;;5.82;2.45;;;8.50;99.90;;;;;;5081175;28;20036;-58
2023/05/17 05:59:10;;;;;;;6.85;2.70;;;8.50;99.90;;;;;;5078605;28;20025;-58
2023/05/17 06:01:36;;;;;;;4.88;2.30;;;8.50;99.90;;;;;;5082581;28;20035;-59
2023/05/17 06:04:03;;;;;;;6.03;2.50;;;8.50;99.90;;;;;;5084268;28;20099;-58
2023/05/17 06:06:28;;;;;;;9.77;2.85;;;8.50;99.90;;;;;;5082071;28;20091;-59
2023/05/17 06:08:54;;;;;;;5.65;2.95;;;8.50;99.90;;;;;;5078237;28;20035;-58
2023/05/17 06:11:20;;;;;;;5.78;2.63;;;8.50;99.90;;;;;;5085276;28;20026;-59
2023/05/17 06:13:46;;;;;;;8.80;2.80;;;8.50;99.90;;;;;;5059562;28;20024;-58
2023/05/17 06:16:12;;;;;;;5.57;2.60;;;8.50;99.90;;;;;;5081071;28;20035;-60
2023/05/17 06:18:37;;;;;;;5.53;2.00;;;8.50;99.90;;;;;;5079479;28;20408;-59
2023/05/17 06:21:03;;;;;;;7.43;2.63;;;8.50;99.90;;;;;;5079366;28;20028;-58
2023/05/17 06:23:29;;;;;;;7.22;2.83;;;8.50;99.90;;;;;;5081785;28;20082;-58
2023/05/17 06:25:54;;;;;;;6.38;2.75;;;8.50;99.90;;;;;;5078202;28;20488;-59
2023/05/17 06:28:20;;;;;;;7.38;3.72;;;8.50;99.90;;;;;;5080291;28;20028;-58
2023/05/17 06:30:46;;;;;;;15.50;3.67;;;8.50;99.90;;;;;;5078095;28;20032;-59
2023/05/17 06:33:11;;;;;;;6.97;2.60;;;8.60;99.90;;;;;;5076886;28;20035;-58
2023/05/17 06:35:37;;;;;;;8.80;2.90;;;8.80;99.90;;;;;;5074764;28;20035;-58
2023/05/17 06:38:03;;;;;;;6.82;2.83;;;8.90;99.90;;;;;;5084089;28;20089;-58
2023/05/17 06:40:29;;;;;;;7.68;3.47;;;9.10;99.90;;;;;;5081928;28;20499;-60
2023/05/17 06:42:54;;;;;;;9.48;3.20;;;9.30;99.90;;;;;;5080911;28;20036;-58
2023/05/17 06:45:20;;;;;;;9.13;3.97;;;9.50;99.90;;;;;;5079086;28;20041;-59
2023/05/17 06:47:46;;;;;;;4.10;2.60;;;9.60;99.90;;;;;;5086199;28;20089;-58
2023/05/17 06:50:12;;;;;;;5.13;3.00;;;9.70;99.90;;;;;;5081875;28;20028;-58
2023/05/17 06:52:38;;;;;;;5.22;3.15;;;9.80;99.90;;;;;;5081271;28;20058;-59
2023/05/17 06:55:04;;;;;;;5.78;3.03;;;10.00;99.90;;;;;;5079924;28;20048;-60
2023/05/17 06:57:30;;;;;;;9.10;3.40;;;10.10;99.90;;;;;;5080865;28;20042;-58
2023/05/17 06:59:56;;;;;;;11.43;3.67;;;10.20;99.90;;;;;;5079625;28;20400;-58
2023/05/17 07:02:21;;;;;;;6.13;3.13;;;10.30;99.90;;;;;;5081919;28;20572;-58
2023/05/17 07:04:47;;;;;;;7.05;3.55;;;10.40;99.90;;;;;;5080628;28;20035;-59
2023/05/17 07:07:13;;;;;;;6.07;2.63;;;10.50;99.90;;;;;;5081224;28;20051;-58
2023/05/17 07:09:38;;;;;;;6.43;3.00;;;10.50;99.90;;;;;;5078593;28;20028;-60
2023/05/17 07:12:04;;;;;;;5.10;2.85;;;10.60;99.90;;;;;;5061856;28;20146;-58
2023/05/17 07:14:30;;;;;;;8.60;2.67;;;10.60;99.90;;;;;;5064220;28;20028;-58
2023/05/17 07:16:56;;;;;;;8.15;3.10;;;10.60;99.90;;;;;;5079499;28;20043;-58
2023/05/17 07:19:22;;;;;;;6.32;2.67;;;10.80;99.90;;;;;;5083383;28;20488;-58
2023/05/17 07:21:48;;;;;;;4.47;2.50;;;10.90;99.90;;;;;;5079155;28;20565;-58
2023/05/17 07:24:13;;;;;;;6.25;2.55;;;11.10;99.90;;;;;;5080717;28;20081;-58
2023/05/17 07:26:39;;;;;;;4.13;2.40;;;11.20;99.90;;;;;;5080268;28;20054;-59
2023/05/17 07:29:05;;;;;;;5.63;2.55;;;11.20;99.90;;;;;;5079896;28;20054;-58
2023/05/17 07:31:31;;;;;;;3.92;1.90;;;11.20;99.90;;;;;;5083154;28;20035;-59
2023/05/17 07:33:56;;;;;;;8.50;2.55;;;11.30;99.90;;;;;;5078918;28;20028;-58
2023/05/17 07:36:22;;;;;;;4.32;2.30;;;11.30;99.90;;;;;;5079289;28;20032;-59
2023/05/17 07:38:48;;;;;;;5.03;2.20;;;11.40;99.90;;;;;;5080937;28;20036;-60
2023/05/17 07:41:15;;;;;;;5.22;2.20;;;11.50;99.90;;;;;;5079461;28;20119;-59
2023/05/17 07:43:41;;;;;;;3.10;1.80;;;11.70;99.90;;;;;;5079391;28;20110;-59
2023/05/17 07:46:07;;;;;;;4.97;2.10;;;12.00;99.90;;;;;;5079662;28;20099;-58
2023/05/17 07:48:33;;;;;;;17.48;3.33;;;12.30;99.80;;;;;;5081201;28;20121;-59
2023/05/17 07:50:58;;;;;;;4.97;2.60;;;12.50;99.20;;;;;;5076788;28;20082;-59
2023/05/17 07:53:24;;;;;;;6.60;2.65;;;12.70;97.20;;;;;;5078635;28;20032;-59
2023/05/17 07:55:50;;;;;;;6.47;2.10;;;12.70;97.00;;;;;;5077321;28;20365;-60
2023/05/17 07:58:16;;;;;;;4.35;2.25;;;12.70;95.50;;;;;;5082944;28;20016;-58
2023/05/17 08:00:42;;;;;;;6.72;3.08;;;12.50;95.80;;;;;;5077509;28;20519;-58
2023/05/17 08:03:07;;;;;;;5.78;2.65;;;12.40;96.00;;;;;;5076771;28;20538;-58
2023/05/17 08:05:33;;;;;;;6.20;2.55;;;12.20;95.40;;;;;;5077402;28;20462;-59
2023/05/17 08:07:59;;;;;;;5.85;3.20;;;12.00;95.70;;;;;;5078068;28;20119;-60
2023/05/17 08:10:28;;;;;;;3.05;1.60;;;11.90;96.20;;;;;;5075813;28;20020;-58
2023/05/17 08:12:54;;;;;;;4.43;1.85;;;11.80;93.50;;;;;;5072902;28;20420;-58
2023/05/17 08:15:21;;;;;;;5.55;2.03;;;11.80;93.60;;;;;;5080210;28;20040;-57
2023/05/17 08:17:46;;;;;;;4.55;2.15;;;11.70;93.30;;;;;;5076868;28;20086;-59
2023/05/17 08:20:12;;;;;;;4.47;2.00;;;11.70;93.70;;;;;;5072895;28;20024;-59
2023/05/17 08:22:38;;;;;;;5.20;2.13;;;11.70;93.30;;;;;;5077766;28;20035;-59
2023/05/17 08:25:04;;;;;;;6.93;1.83;;;11.80;94.50;;;;;;5079145;28;20107;-60
2023/05/17 08:27:32;;;;;;;5.40;1.63;;;11.90;93.50;;;;;;5078430;28;20063;-59
2023/05/17 08:29:58;;;;;;;5.43;1.92;;;12.10;93.10;;;;;;5076286;28;20064;-59
2023/05/17 08:32:24;;;;;;;7.22;2.40;;;12.30;91.30;;;;;;5077842;28;20059;-60
2023/05/17 08:34:50;;;;;;;3.88;1.83;;;12.40;91.20;;;;;;5075776;28;20510;-59
2023/05/17 08:37:17;;;;;;;3.90;2.13;;;12.50;89.30;;;;;;5078400;28;20024;-58
2023/05/17 08:39:43;;;;;;;3.95;1.98;;;12.50;91.10;;;;;;5082265;28;20116;-59
2023/05/17 08:42:09;;;;;;;3.22;1.90;;;12.70;89.90;;;;;;5080059;28;20186;-58
2023/05/17 08:44:35;;;;;;;3.22;2.13;;;12.80;89.40;;;;;;5076447;28;20033;-58
2023/05/17 08:47:02;;;;;;;23.63;2.78;;;13.00;89.20;;;;;;5080182;28;20040;-59
2023/05/17 08:49:32;;;;;;;3.85;1.83;;;13.10;89.60;;;;;;5077390;28;20039;-58
2023/05/17 08:51:59;;;;;;;4.07;2.17;;;13.30;87.80;;;;;;5080051;28;20071;-58
2023/05/17 08:54:25;;;;;;;6.55;1.88;;;13.40;87.50;;;;;;5077233;28;20028;-60
2023/05/17 08:56:53;;;;;;;4.38;2.20;;;13.40;86.10;;;;;;5074073;28;20435;-59
2023/05/17 08:59:20;;;;;;;5.15;1.90;;;13.30;86.40;;;;;;5076031;28;20025;-58
2023/05/17 09:01:51;;;;;;;7.90;2.00;;;13.20;88.80;;;;;;5076369;28;20408;-59
2023/05/17 09:04:17;;;;;;;3.70;1.80;;;13.00;87.80;;;;;;5075266;28;20031;-58
2023/05/17 09:06:43;;;;;;;3.42;1.90;;;12.80;87.10;;;;;;5078760;28;20112;-60
2023/05/17 09:09:09;;;;;;;3.20;1.92;;;12.60;88.40;;;;;;5076387;28;20051;-59
2023/05/17 09:11:35;;;;;;;8.52;2.47;;;12.30;90.30;;;;;;5072544;28;20060;-59
2023/05/17 09:14:06;;;;;;;4.70;2.28;;;12.10;91.00;;;;;;5074181;28;20058;-59
2023/05/17 09:16:34;;;;;;;4.88;1.92;;;12.10;91.10;;;;;;5076461;28;20032;-58
2023/05/17 09:19:01;;;;;;;3.90;1.70;;;12.00;90.90;;;;;;5083475;28;20063;-59
2023/05/17 09:21:27;;;;;;;9.57;2.80;;;12.00;90.40;;;;;;5079932;28;20127;-59
2023/05/17 09:23:54;;;;;;;6.15;2.78;;;12.10;90.50;;;;;;5078127;28;20028;-58
2023/05/17 09:26:21;;;;;;;4.82;2.10;;;12.20;90.60;;;;;;5081254;28;20496;-58
2023/05/17 09:28:47;;;;;;;8.18;2.05;;;12.30;90.90;;;;;;5079119;28;20469;-58
2023/05/17 09:31:15;;;;;;;6.90;2.25;;;12.50;89.40;;;;;;5078788;28;20024;-58
2023/05/17 09:33:49;;;;;;;5.72;2.33;;;12.70;89.10;;;;;;5079591;28;20036;-59
2023/05/17 09:36:23;;;;;;;6.43;2.42;;;12.80;87.90;;;;;;5079238;28;20025;-59
2023/05/17 09:39:00;;;;;;;3.67;1.85;;;13.00;88.30;;;;;;5076690;28;20119;-59
2023/05/17 09:41:47;;;;;;;8.77;5.35;;;13.00;86.20;;;;;;5077879;28;20739;-60
2023/05/17 09:44:13;;;;;;;4.30;2.35;;;13.00;86.00;;;;;;5080321;28;20029;-58
2023/05/17 09:46:47;;;;;;;3.25;1.98;;;13.00;86.40;;;;;;5082912;28;20028;-60
2023/05/17 09:49:13;;;;;;;5.25;2.72;;;13.00;86.30;;;;;;5077134;28;20132;-60
2023/05/17 09:51:41;;;;;;;2.90;1.80;;;13.10;86.00;;;;;;5081662;28;20032;-60
2023/05/17 09:54:08;;;;;;;3.92;2.03;;;13.10;85.20;;;;;;5082407;28;20032;-58
2023/05/17 09:56:34;;;;;;;7.15;2.90;;;13.00;84.60;;;;;;5077319;28;20029;-59
2023/05/17 09:59:01;;;;;;;4.40;2.25;;;13.10;86.50;;;;;;5080318;28;20387;-59
2023/05/17 10:01:30;;;;;;;5.82;3.20;;;13.10;85.70;;;;;;5079817;28;20036;-58
2023/05/17 10:04:00;;;;;;;7.68;3.38;;;13.20;85.10;;;;;;5079536;28;20048;-58
2023/05/17 10:06:28;;;;;;;3.67;2.10;;;13.30;84.50;;;;;;5078794;28;20556;-59
2023/05/17 10:08:56;;;;;;;4.00;2.13;;;13.30;83.40;;;;;;5060980;28;20032;-58
2023/05/17 10:11:33;;;;;;;5.13;2.35;;;13.30;83.60;;;;;;5078746;28;20048;-60
2023/05/17 10:14:21;;;;;;;2.97;1.83;;;13.50;83.30;;;;;;5078797;28;20028;-59
2023/05/17 10:16:48;;;;;;;4.85;2.17;;;13.70;80.80;;;;;;5080534;28;20050;-59
2023/05/17 10:19:14;;;;;;;5.80;2.08;;;14.00;83.90;;;;;;5081533;28;20015;-59
2023/05/17 10:21:41;;;;;;;4.40;2.05;;;14.40;80.20;;;;;;5077799;28;20072;-59
2023/05/17 10:24:08;;;;;;;4.22;2.00;;;14.70;79.90;;;;;;5077843;28;20464;-60
2023/05/17 10:26:35;;;;;;;3.58;2.00;;;14.90;75.70;;;;;;5078554;28;20035;-59
2023/05/17 10:29:02;;;;;;;2.33;1.58;;;14.90;76.90;;;;;;5078817;28;20039;-60
2023/05/17 10:31:35;;;;;;;3.05;1.92;;;15.00;73.50;;;;;;5080119;28;20032;-59
2023/05/17 10:34:04;;;;;;;3.63;2.08;;;14.90;74.90;;;;;;5076111;28;20454;-59
2023/05/17 10:36:30;;;;;;;3.13;2.00;;;14.70;75.00;;;;;;5082558;28;20040;-60
2023/05/17 10:38:56;;;;;;;4.00;2.10;;;14.50;74.40;;;;;;5082315;28;20039;-59
2023/05/17 10:41:25;;;;;;;4.28;2.08;;;14.40;78.40;;;;;;5081670;28;20115;-58
2023/05/17 10:43:52;;;;;;;4.47;1.80;;;14.40;77.20;;;;;;5081227;28;20051;-58
2023/05/17 10:46:22;;;;;;;3.40;2.20;;;14.40;77.80;;;;;;5083211;28;20044;-59
2023/05/17 10:48:51;;;;;;;3.55;1.98;;;14.50;76.90;;;;;;5080444;28;20043;-60
2023/05/17 10:51:23;;;;;;;3.92;2.40;;;14.50;78.10;;;;;;5082041;28;20154;-60
2023/05/17 10:54:11;;;;;;;4.38;2.13;;;14.50;75.30;;;;;;5062985;28;20059;-59
2023/05/17 10:57:06;;;;;;;6.20;2.22;;;14.40;77.10;;;;;;5082638;28;20033;-59
2023/05/17 10:59:32;;;;;;;6.28;2.35;;;14.40;75.50;;;;;;5069797;28;20111;-61
2023/05/17 11:02:05;;;;;;;3.58;2.10;;;14.40;75.40;;;;;;5079238;28;20035;-59
2023/05/17 11:04:32;;;;;;;7.78;2.90;;;14.40;76.40;;;;;;5081918;28;20027;-60
2023/05/17 11:07:20;;;;;;;4.90;2.33;;;14.40;75.90;;;;;;5082154;28;20028;-59
2023/05/17 11:09:55;;;;;;;4.05;2.25;;;14.50;75.50;;;;;;5081074;28;20038;-60
2023/05/17 11:12:43;;;;;;;4.80;2.45;;;14.50;75.40;;;;;;5081831;28;20032;-59
2023/05/17 11:15:09;;;;;;;5.13;3.03;;;14.70;72.70;;;;;;5080136;28;20024;-59
2023/05/17 11:17:49;;;;;;;5.97;2.17;;;14.80;74.40;;;;;;5081533;28;20550;-60
2023/05/17 11:20:15;;;;;;;5.50;2.63;;;15.10;74.30;;;;;;5071445;28;20451;-60
2023/05/17 11:22:42;;;;;;;4.32;2.28;;;15.30;76.10;;;;;;5081330;28;20032;-59
2023/05/17 11:25:10;;;;;;;7.95;2.25;;;15.40;73.30;;;;;;5083992;28;20111;-59
2023/05/17 11:27:47;;;;;;;3.80;2.22;;;15.40;68.60;;;;;;5079064;28;20139;-59
2023/05/17 11:30:20;;;;;;;4.53;2.40;;;15.40;72.90;;;;;;5080099;28;20029;-59
2023/05/17 11:32:50;;;;;;;3.03;2.03;;;15.20;72.00;;;;;;5079421;28;20484;-59
2023/05/17 11:35:25;;;;;;;4.55;2.58;;;15.00;70.00;;;;;;5080792;28;20038;-59
2023/05/17 11:37:52;;;;;;;4.82;2.75;;;14.90;70.10;;;;;;5080289;28;20096;-60
2023/05/17 11:40:27;;;;;;;6.35;3.15;;;14.90;72.00;;;;;;5080958;28;20031;-60
2023/05/17 11:43:22;;;;;;;7.75;2.40;;;15.00;72.10;;;;;;5079318;28;20024;-59
2023/05/17 11:46:02;;;;;;;7.22;2.28;;;14.90;71.00;;;;;;5083045;28;20061;-60
2023/05/17 11:48:29;;;;;;;5.45;2.55;;;14.90;70.80;;;;;;5081095;28;20056;-59
2023/05/17 11:50:56;;;;;;;3.28;1.70;;;14.90;71.30;;;;;;5079632;28;20021;-59
2023/05/17 11:53:23;;;;;;;3.75;2.00;;;14.80;71.00;;;;;;5079816;28;20059;-59
2023/05/17 11:55:50;;;;;;;3.83;2.15;;;14.80;70.50;;;;;;5079435;28;20628;-58
2023/05/17 11:58:23;;;;;;;4.75;2.30;;;15.00;71.10;;;;;;5078089;28;20024;-59
2023/05/17 12:00:54;;;;;;;4.13;2.58;;;15.30;72.90;;;;;;5075820;28;20036;-60
2023/05/17 12:03:25;;;;;;;8.27;1.90;;;15.50;71.10;;;;;;5077645;28;20085;-60
2023/05/17 12:06:14;;;;;;;5.05;2.83;;;15.50;70.40;;;;;;5078897;28;20050;-61
2023/05/17 12:08:45;;;;;;;4.18;2.42;;;15.40;71.40;;;;;;5079285;28;20028;-59
2023/05/17 12:11:16;;;;;;;6.40;2.30;;;15.50;70.70;;;;;;5075269;28;20036;-59
2023/05/17 12:13:42;;;;;;;5.10;2.10;;;15.50;69.30;;;;;;5080654;28;20059;-59
2023/05/17 12:16:13;;;;;;;3.20;1.88;;;15.50;69.60;;;;;;5062703;28;20430;-59
2023/05/17 12:18:41;;;;;;;3.17;1.87;;;15.30;72.10;;;;;;5078354;28;20036;-60
2023/05/17 12:21:09;;;;;;;5.95;2.53;;;15.10;70.20;;;;;;5073382;28;20028;-60
2023/05/17 12:23:38;;;;;;;3.92;1.85;;;14.90;70.00;;;;;;5078809;28;20032;-59
2023/05/17 12:26:15;;;;;;;5.40;2.05;;;14.80;73.90;;;;;;5075987;28;20473;-59
2023/05/17 12:28:43;;;;;;;5.88;2.38;;;14.80;74.10;;;;;;5074001;28;20550;-59
2023/05/17 12:31:17;;;;;;;4.72;2.05;;;14.80;74.90;;;;;;5079099;28;20028;-59
2023/05/17 12:33:46;;;;;;;5.47;2.47;;;14.80;73.30;;;;;;5075656;28;20036;-60
2023/05/17 12:36:12;;;;;;;3.40;2.28;;;14.80;71.80;;;;;;5080100;28;20178;-59
2023/05/17 12:38:42;;;;;;;5.28;2.08;;;14.70;72.00;;;;;;5076010;28;20461;-60
2023/05/17 12:41:14;;;;;;;6.65;2.75;;;14.60;71.00;;;;;;5077263;28;20854;-59
2023/05/17 12:43:39;;;;;;;4.63;2.33;;;14.60;72.30;;;;;;5075979;28;20032;-58
2023/05/17 12:46:19;;;;;;;7.55;3.17;;;14.60;72.60;;;;;;5077875;28;20031;-60
2023/05/17 12:48:46;;;;;;;5.30;2.17;;;14.60;71.40;;;;;;5076782;28;20162;-59
2023/05/17 12:51:22;;;;;;;7.05;2.30;;;14.50;72.40;;;;;;5076635;28;20075;-58
2023/05/17 12:53:48;;;;;;;6.53;1.88;;;14.40;71.80;;;;;;5077348;28;20024;-59
2023/05/17 12:56:15;;;;;;;6.63;2.58;;;14.30;70.70;;;;;;5074842;28;20028;-59